KSNA/SNA METAR and TAF weather

Enter ICAO airport designator
Station Type Date Time Source
KSNA METAR 2019/10/15 17:53 UTC NOAA

KSNA 151753Z 26004KT 7SM CLR 23/13 A3001 RMK AO2 SLP162 T02280133 10233 20150 50002


Station Type Date Time Source
KSNA Decoded METAR 2019/10/15 17:53 UTC NOAA

SANTA ANA WAYNE ORANGE CTY, CA, United States (KSNA) 33-41N 117-52W 15M
Oct 15, 2019 - 01:53 PM EDT / 2019.10.15 1753 UTC
Wind: from the W (260 degrees) at 5 MPH (4 KT):0
Visibility: 7 mile(s):0
Sky conditions: clear
Temperature: 73.0 F (22.8 C)
Dew Point: 55.9 F (13.3 C)
Relative Humidity: 55%
Pressure (altimeter): 30.01 in. Hg (1016 hPa)
Pressure tendency: 0.01 inches (0.2 hPa) higher than three hours ago
ob: KSNA 151753Z 26004KT 7SM CLR 23/13 A3001 RMK AO2 SLP162 T02280133 10233 20150 50002
cycle: 18

Station Type Date Time Source
KSNA TAF 2019/10/15 18:24 UTC NOAA

TAF KSNA 151721Z 1518/1618 VRB03KT P6SM SKC
FM151900 23007KT P6SM SKC
FM160200 VRB04KT P6SM SCT010

Example: see airport list